Time;durP1;ratioP1;P1;durP2;ratioP2;P2;SDS_P1;SDS_P2;PMS_P1;PMS_P2;Temp;Humidity;BMP_temperature;BMP_pressure;BME280_temperature;BME280_humidity;BME280_pressure;Samples;Min_cycle;Max_cycle;Signal;HPM_P1;HPM_P2
2022/06/27 00:00:47;;;;;;;1.60;1.50;;;23.70;99.90;;;;;;5013874;28;20464;-62
2022/06/27 00:03:13;;;;;;;2.05;1.80;;;23.80;99.90;;;;;;5013847;28;20106;-62
2022/06/27 00:05:38;;;;;;;1.90;1.80;;;23.80;99.90;;;;;;5013848;28;20473;-62
2022/06/27 00:08:04;;;;;;;1.80;1.70;;;23.70;99.90;;;;;;5013697;28;20028;-62
2022/06/27 00:10:30;;;;;;;2.70;2.10;;;23.70;99.90;;;;;;5013965;28;20048;-62
2022/06/27 00:12:56;;;;;;;1.52;1.42;;;23.70;99.90;;;;;;5013992;28;20077;-62
2022/06/27 00:15:22;;;;;;;1.90;1.77;;;23.70;99.90;;;;;;5012960;28;20028;-62
2022/06/27 00:17:48;;;;;;;3.45;1.80;;;23.80;99.90;;;;;;5013892;28;20053;-62
2022/06/27 00:20:14;;;;;;;1.90;1.75;;;23.70;99.90;;;;;;5013595;28;20496;-62
2022/06/27 00:22:40;;;;;;;1.60;1.50;;;23.70;99.90;;;;;;5013573;28;20026;-62
2022/06/27 00:25:07;;;;;;;1.55;1.40;;;23.70;99.90;;;;;;5013656;28;20392;-62
2022/06/27 00:27:32;;;;;;;1.40;1.30;;;23.70;99.90;;;;;;5013465;28;20026;-62
2022/06/27 00:29:58;;;;;;;1.30;1.20;;;23.60;99.90;;;;;;5013483;28;20022;-62
2022/06/27 00:32:26;;;;;;;1.70;1.60;;;23.70;99.90;;;;;;5013823;28;20033;-62
2022/06/27 00:34:52;;;;;;;1.30;1.20;;;23.70;99.90;;;;;;5013416;28;20477;-62
2022/06/27 00:37:18;;;;;;;1.50;1.30;;;23.70;99.90;;;;;;5013307;28;20026;-62
2022/06/27 00:39:44;;;;;;;2.65;1.60;;;23.60;99.90;;;;;;5014083;28;20018;-62
2022/06/27 00:42:10;;;;;;;2.63;1.67;;;23.60;99.90;;;;;;5013296;28;20037;-62
2022/06/27 00:44:38;;;;;;;2.30;1.65;;;23.50;99.90;;;;;;5013665;28;20033;-62
2022/06/27 00:47:06;;;;;;;1.80;1.70;;;23.50;99.90;;;;;;5013435;28;20022;-62
2022/06/27 00:49:32;;;;;;;2.17;1.70;;;23.50;99.90;;;;;;5013580;28;20022;-62
2022/06/27 00:51:58;;;;;;;1.73;1.63;;;23.40;99.90;;;;;;5013432;28;20515;-62
2022/06/27 00:54:24;;;;;;;2.05;1.60;;;23.40;99.90;;;;;;5013602;28;20026;-62
2022/06/27 00:56:51;;;;;;;1.98;1.77;;;23.40;99.90;;;;;;5013436;28;20547;-62
2022/06/27 00:59:18;;;;;;;2.42;1.67;;;23.40;99.90;;;;;;5013223;28;20050;-62
2022/06/27 01:01:44;;;;;;;2.25;1.40;;;23.30;99.90;;;;;;5013462;28;20030;-62
2022/06/27 01:04:10;;;;;;;2.13;2.03;;;23.20;99.90;;;;;;5013441;28;20110;-62
2022/06/27 01:06:36;;;;;;;1.90;1.80;;;23.10;99.90;;;;;;5013082;28;20097;-62
2022/06/27 01:09:03;;;;;;;2.35;1.83;;;23.10;99.90;;;;;;5013213;28;20026;-62
2022/06/27 01:11:29;;;;;;;2.33;1.83;;;23.10;99.90;;;;;;5013123;28;20025;-62
2022/06/27 01:13:55;;;;;;;2.15;1.67;;;23.00;99.90;;;;;;5013172;28;20045;-62
2022/06/27 01:16:21;;;;;;;2.15;1.80;;;23.00;99.90;;;;;;5013048;28;20373;-62
2022/06/27 01:18:47;;;;;;;1.65;1.55;;;23.00;99.90;;;;;;5013105;28;20458;-62
2022/06/27 01:21:20;;;;;;;1.20;1.10;;;23.00;99.90;;;;;;5012746;28;20059;-62
2022/06/27 01:23:46;;;;;;;1.83;1.45;;;23.00;99.90;;;;;;5013093;28;20018;-62
2022/06/27 01:26:12;;;;;;;1.98;1.77;;;23.10;99.90;;;;;;5014085;28;20026;-62
2022/06/27 01:28:38;;;;;;;1.73;1.63;;;23.00;99.90;;;;;;5016821;28;20026;-62
2022/06/27 01:31:03;;;;;;;2.33;1.85;;;22.90;99.90;;;;;;5016679;28;20388;-62
2022/06/27 01:33:29;;;;;;;1.65;1.40;;;22.90;99.90;;;;;;5016636;28;20392;-62
2022/06/27 01:36:41;;;;;;;1.75;1.52;;;22.90;99.90;;;;;;5016314;28;20072;-62
2022/06/27 01:38:41;;;;;;;1.95;1.38;;;22.90;99.90;;;;;;5016377;28;20026;-62
2022/06/27 01:41:07;;;;;;;1.45;1.35;;;22.90;99.90;;;;;;5016340;28;20607;-62
2022/06/27 01:43:34;;;;;;;1.60;1.40;;;22.90;99.90;;;;;;5016592;28;20109;-62
2022/06/27 01:46:00;;;;;;;1.40;1.20;;;22.90;99.90;;;;;;5016443;28;20018;-62
2022/06/27 01:48:28;;;;;;;1.30;1.20;;;22.90;99.90;;;;;;5016235;28;20029;-62
2022/06/27 01:50:55;;;;;;;1.25;1.15;;;22.80;99.90;;;;;;5016133;28;20026;-62
2022/06/27 01:53:22;;;;;;;1.55;1.40;;;22.80;99.90;;;;;;5016516;28;20350;-62
2022/06/27 01:55:48;;;;;;;1.77;1.67;;;22.80;99.90;;;;;;5016422;28;20432;-62
2022/06/27 01:58:13;;;;;;;1.40;1.30;;;22.80;99.90;;;;;;5016233;28;20050;-62
2022/06/27 02:00:39;;;;;;;2.40;1.38;;;22.70;99.90;;;;;;5016358;28;20034;-62
2022/06/27 02:03:06;;;;;;;1.63;1.50;;;22.70;99.90;;;;;;5015925;28;20472;-62
2022/06/27 02:05:32;;;;;;;1.75;1.65;;;22.70;99.90;;;;;;5016071;28;20025;-61
2022/06/27 02:07:59;;;;;;;1.50;1.40;;;22.50;99.90;;;;;;5015999;28;20064;-62
2022/06/27 02:10:25;;;;;;;1.52;1.42;;;22.40;99.90;;;;;;5015893;28;20026;-62
2022/06/27 02:12:51;;;;;;;2.00;1.27;;;22.40;99.90;;;;;;5016028;28;20088;-62
2022/06/27 02:15:17;;;;;;;1.40;1.30;;;22.50;99.90;;;;;;5015864;28;20030;-62
2022/06/27 02:17:42;;;;;;;1.98;1.20;;;22.50;99.90;;;;;;5015812;28;20469;-62
2022/06/27 02:20:08;;;;;;;1.55;1.25;;;22.50;99.90;;;;;;5015331;28;20030;-62
2022/06/27 02:22:34;;;;;;;1.70;1.60;;;22.50;99.90;;;;;;5015677;28;20120;-62
2022/06/27 02:25:00;;;;;;;1.65;1.55;;;22.40;99.90;;;;;;5015727;28;20057;-62
2022/06/27 02:27:29;;;;;;;1.70;1.60;;;22.40;99.90;;;;;;5015809;28;20029;-62
2022/06/27 02:29:54;;;;;;;2.83;2.03;;;22.30;99.90;;;;;;5015679;28;20029;-62
2022/06/27 02:32:20;;;;;;;2.33;1.80;;;22.30;99.90;;;;;;5015527;28;20026;-62
2022/06/27 02:34:49;;;;;;;1.67;1.58;;;22.20;99.90;;;;;;5015314;28;20029;-62
2022/06/27 02:37:15;;;;;;;2.42;1.85;;;22.20;99.90;;;;;;5015023;28;20080;-62
2022/06/27 02:39:44;;;;;;;1.80;1.70;;;22.20;99.90;;;;;;5015160;28;20424;-62
2022/06/27 02:42:11;;;;;;;1.70;1.60;;;22.20;99.90;;;;;;5015495;28;20419;-62
2022/06/27 02:44:39;;;;;;;1.83;1.60;;;22.20;99.90;;;;;;5015410;28;20065;-62
2022/06/27 02:47:04;;;;;;;2.17;1.90;;;22.10;99.90;;;;;;5015101;28;20018;-62
2022/06/27 02:49:31;;;;;;;2.60;2.05;;;22.20;99.90;;;;;;5015380;28;20097;-62
2022/06/27 02:51:59;;;;;;;2.05;1.70;;;22.10;99.90;;;;;;5015455;28;20592;-62
2022/06/27 02:54:34;;;;;;;1.90;1.80;;;22.10;99.90;;;;;;5015147;28;20076;-62
2022/06/27 02:57:07;;;;;;;2.42;2.22;;;22.10;99.90;;;;;;5014767;28;20037;-62
2022/06/27 02:59:39;;;;;;;2.00;1.90;;;22.00;99.90;;;;;;5015161;28;20113;-62
2022/06/27 03:02:09;;;;;;;3.25;2.33;;;22.00;99.90;;;;;;5014648;28;20113;-62
2022/06/27 03:04:34;;;;;;;2.08;1.98;;;22.00;99.90;;;;;;5015176;28;20030;-62
2022/06/27 03:07:01;;;;;;;2.10;1.88;;;21.90;99.90;;;;;;5015114;28;20072;-62
2022/06/27 03:09:26;;;;;;;2.20;2.10;;;21.90;99.90;;;;;;5014762;28;20061;-62
2022/06/27 03:11:52;;;;;;;2.50;2.30;;;22.00;99.90;;;;;;5014896;28;20054;-62
2022/06/27 03:14:18;;;;;;;2.30;2.10;;;22.00;99.90;;;;;;5014753;28;20030;-61
2022/06/27 03:16:44;;;;;;;2.58;2.20;;;21.90;99.90;;;;;;5014494;28;20026;-62
2022/06/27 03:19:09;;;;;;;2.60;2.17;;;21.90;99.90;;;;;;5014557;28;20493;-62
2022/06/27 03:21:35;;;;;;;1.95;1.85;;;21.90;99.90;;;;;;5014550;28;20034;-62
2022/06/27 03:24:01;;;;;;;2.08;1.60;;;21.90;99.90;;;;;;5014544;28;20022;-62
2022/06/27 03:26:27;;;;;;;2.00;1.90;;;22.00;99.90;;;;;;5014444;28;20022;-61
2022/06/27 03:28:53;;;;;;;2.17;1.98;;;22.00;99.90;;;;;;5014500;28;20499;-62
2022/06/27 03:31:19;;;;;;;2.13;2.03;;;22.00;99.90;;;;;;5014248;28;20030;-61
2022/06/27 03:33:44;;;;;;;2.10;1.90;;;22.00;99.90;;;;;;5014528;28;20018;-62
2022/06/27 03:36:11;;;;;;;2.10;2.00;;;22.00;99.90;;;;;;5014546;28;20052;-61
2022/06/27 03:38:36;;;;;;;2.35;2.20;;;22.00;99.90;;;;;;5014327;28;20022;-62
2022/06/27 03:41:02;;;;;;;1.80;1.70;;;21.90;99.90;;;;;;5014179;28;20508;-62
2022/06/27 03:43:28;;;;;;;2.22;2.05;;;21.90;99.90;;;;;;5014240;28;20025;-62
2022/06/27 03:45:55;;;;;;;2.60;2.40;;;22.00;99.90;;;;;;5014026;28;20477;-62
2022/06/27 03:51:06;;;;;;;2.30;2.10;;;22.00;99.90;;;;;;5014213;28;20033;-62
2022/06/27 03:53:32;;;;;;;1.92;1.58;;;22.00;99.90;;;;;;5014377;28;20365;-62
2022/06/27 03:55:58;;;;;;;2.13;1.80;;;22.00;99.90;;;;;;5014012;28;20032;-62
2022/06/27 03:58:23;;;;;;;1.70;1.60;;;22.00;99.90;;;;;;5013803;28;20053;-62
2022/06/27 04:00:49;;;;;;;1.67;1.58;;;22.10;99.90;;;;;;5013724;28;20030;-62
2022/06/27 04:03:14;;;;;;;2.20;2.00;;;22.10;99.90;;;;;;5013778;28;20022;-62
2022/06/27 04:05:40;;;;;;;2.30;2.10;;;22.10;99.90;;;;;;5013975;28;20030;-61
2022/06/27 04:08:06;;;;;;;2.00;1.80;;;22.20;99.90;;;;;;5013886;28;20101;-62
2022/06/27 04:10:33;;;;;;;3.03;2.33;;;22.20;99.90;;;;;;5013668;28;20512;-62
2022/06/27 04:12:58;;;;;;;3.97;3.60;;;22.20;99.90;;;;;;5013807;28;20435;-62
2022/06/27 04:15:24;;;;;;;3.88;3.22;;;22.10;99.90;;;;;;5013505;28;20021;-62
2022/06/27 04:17:50;;;;;;;3.63;3.33;;;22.10;99.90;;;;;;5013613;28;20026;-62
2022/06/27 04:20:15;;;;;;;3.45;3.08;;;22.10;99.90;;;;;;5013597;28;20152;-62
2022/06/27 04:22:41;;;;;;;2.70;2.50;;;22.10;99.90;;;;;;5013629;28;20093;-62
2022/06/27 04:25:07;;;;;;;2.70;2.47;;;22.20;99.90;;;;;;5013687;28;20464;-62
2022/06/27 04:27:33;;;;;;;2.53;2.33;;;22.30;99.90;;;;;;5013560;28;20596;-62
2022/06/27 04:29:58;;;;;;;5.22;4.05;;;22.30;99.90;;;;;;5013339;28;20054;-62
2022/06/27 04:32:28;;;;;;;3.45;3.15;;;22.30;99.90;;;;;;5013674;28;20025;-61
2022/06/27 04:34:54;;;;;;;2.90;2.70;;;22.20;99.90;;;;;;5013713;28;20388;-62
2022/06/27 04:37:20;;;;;;;3.92;3.55;;;22.30;99.90;;;;;;5013769;28;20026;-62
2022/06/27 04:39:46;;;;;;;3.20;2.90;;;22.40;99.90;;;;;;5013521;28;20017;-62
2022/06/27 04:42:12;;;;;;;3.50;3.17;;;22.40;99.90;;;;;;5013605;28;20435;-62
2022/06/27 04:44:42;;;;;;;2.60;2.40;;;22.40;99.90;;;;;;5013273;28;20400;-62
2022/06/27 04:47:08;;;;;;;2.65;2.45;;;22.50;99.90;;;;;;5013531;28;20026;-62
2022/06/27 04:49:38;;;;;;;2.35;2.15;;;22.60;99.90;;;;;;5013330;28;20477;-61
2022/06/27 04:52:07;;;;;;;2.70;2.50;;;22.70;99.90;;;;;;5013471;28;20028;-62
2022/06/27 04:54:34;;;;;;;4.10;3.30;;;22.70;99.90;;;;;;5013356;28;20032;-62
2022/06/27 04:57:00;;;;;;;3.78;3.47;;;22.70;99.90;;;;;;5013324;28;20125;-62
2022/06/27 04:59:26;;;;;;;3.47;3.20;;;22.70;99.90;;;;;;5013137;28;20120;-66
2022/06/27 05:01:51;;;;;;;4.35;3.25;;;22.70;99.90;;;;;;5015246;28;20061;-62
2022/06/27 05:04:21;;;;;;;3.13;2.83;;;22.70;99.90;;;;;;5012559;28;20037;-61
2022/06/27 05:06:47;;;;;;;3.60;3.30;;;22.80;99.90;;;;;;5023487;28;20026;-65
2022/06/27 05:09:14;;;;;;;3.45;3.15;;;22.70;99.90;;;;;;5033679;28;20025;-62
2022/06/27 05:11:40;;;;;;;3.60;3.05;;;22.80;99.90;;;;;;5011447;28;20080;-60
2022/06/27 05:14:06;;;;;;;3.72;3.40;;;22.90;99.90;;;;;;5006038;28;20118;-60
2022/06/27 05:16:32;;;;;;;3.55;3.33;;;23.00;99.90;;;;;;4998335;28;20157;-64
2022/06/27 05:18:58;;;;;;;4.15;3.80;;;23.10;99.90;;;;;;4995305;28;20570;-64
2022/06/27 05:21:23;;;;;;;3.47;3.20;;;23.10;99.90;;;;;;4997532;28;20358;-64
2022/06/27 05:23:50;;;;;;;3.85;3.55;;;23.20;99.90;;;;;;4996156;28;20474;-62
2022/06/27 05:26:16;;;;;;;5.00;3.35;;;23.20;99.90;;;;;;4994758;28;20042;-64
2022/06/27 05:28:42;;;;;;;4.05;3.30;;;23.20;99.90;;;;;;4994889;28;20037;-65
2022/06/27 05:31:09;;;;;;;3.85;3.55;;;23.30;99.90;;;;;;4995600;28;20416;-61
2022/06/27 05:33:35;;;;;;;3.05;2.85;;;23.40;99.90;;;;;;4995573;28;20440;-66
2022/06/27 05:36:02;;;;;;;5.22;4.70;;;23.40;99.90;;;;;;5019280;28;20038;-62
2022/06/27 05:38:28;;;;;;;5.50;4.40;;;23.50;99.90;;;;;;4995636;28;20385;-62
2022/06/27 05:40:53;;;;;;;4.97;3.88;;;23.50;99.90;;;;;;4998578;28;20034;-62
2022/06/27 05:43:19;;;;;;;3.45;3.15;;;23.60;99.90;;;;;;4997442;28;20034;-62
2022/06/27 05:45:45;;;;;;;5.10;4.13;;;23.70;99.90;;;;;;5004568;28;20508;-62
2022/06/27 05:48:11;;;;;;;3.00;2.80;;;23.80;99.90;;;;;;4996848;28;20026;-61
2022/06/27 05:50:37;;;;;;;3.33;3.13;;;24.00;99.90;;;;;;4999225;28;20026;-61
2022/06/27 05:53:03;;;;;;;4.53;3.28;;;24.10;99.90;;;;;;4996054;28;20026;-63
2022/06/27 05:55:29;;;;;;;6.88;6.22;;;24.20;99.90;;;;;;5003531;28;20400;-61
2022/06/27 05:57:57;;;;;;;4.95;4.35;;;24.40;99.90;;;;;;5001190;28;20047;-61
2022/06/27 06:00:23;;;;;;;4.20;3.90;;;24.50;99.90;;;;;;4995090;28;20109;-63
2022/06/27 06:02:49;;;;;;;3.92;3.63;;;24.60;99.90;;;;;;4996397;28;20031;-61
2022/06/27 06:05:17;;;;;;;4.90;4.45;;;24.70;99.90;;;;;;5004834;28;20483;-61
2022/06/27 06:07:43;;;;;;;4.97;4.60;;;24.90;99.90;;;;;;5015861;28;20034;-62
2022/06/27 06:10:09;;;;;;;5.18;4.78;;;25.00;99.90;;;;;;5010659;28;20023;-62
2022/06/27 06:12:35;;;;;;;4.55;4.20;;;25.10;99.90;;;;;;4994085;28;20371;-61
2022/06/27 06:15:04;;;;;;;4.60;4.20;;;25.30;99.90;;;;;;4998385;28;20092;-62
2022/06/27 06:17:34;;;;;;;4.45;4.03;;;25.50;99.90;;;;;;5013488;28;20026;-62
2022/06/27 06:20:03;;;;;;;3.90;3.60;;;25.60;99.90;;;;;;5019329;28;20037;-61
2022/06/27 06:22:28;;;;;;;3.80;3.58;;;25.70;99.90;;;;;;5013781;28;20037;-61
2022/06/27 06:24:58;;;;;;;3.47;3.25;;;25.80;99.90;;;;;;5008224;28;20034;-62
2022/06/27 06:27:24;;;;;;;7.00;5.63;;;25.90;99.90;;;;;;5013519;28;20025;-65
2022/06/27 06:29:49;;;;;;;9.02;5.82;;;26.00;99.90;;;;;;5020665;28;20068;-65
2022/06/27 06:32:16;;;;;;;8.50;5.75;;;26.10;99.90;;;;;;5017070;28;20034;-61
2022/06/27 06:34:42;;;;;;;10.30;6.90;;;26.20;99.90;;;;;;5013543;28;20049;-61
2022/06/27 06:37:09;;;;;;;12.32;8.07;;;26.30;99.90;;;;;;5004696;28;20095;-64
2022/06/27 06:39:36;;;;;;;8.00;6.45;;;26.40;99.90;;;;;;5007872;28;20022;-62
2022/06/27 06:42:03;;;;;;;14.80;8.90;;;26.50;99.90;;;;;;5012126;28;20029;-63
2022/06/27 06:44:28;;;;;;;65.47;24.33;;;26.60;99.90;;;;;;5012618;28;20493;-62
2022/06/27 06:46:55;;;;;;;17.10;10.65;;;26.70;99.90;;;;;;5012137;28;20034;-61
2022/06/27 06:49:21;;;;;;;37.75;17.73;;;26.70;99.90;;;;;;5013591;28;20022;-61
2022/06/27 06:51:48;;;;;;;21.90;12.55;;;26.80;99.90;;;;;;5014889;28;20041;-62
2022/06/27 06:54:18;;;;;;;13.52;9.70;;;26.90;99.90;;;;;;5014933;28;20460;-62
2022/06/27 06:56:53;;;;;;;11.57;8.98;;;27.00;99.90;;;;;;5012366;28;20037;-63
2022/06/27 06:59:19;;;;;;;10.70;8.95;;;27.10;99.90;;;;;;5015505;28;20104;-63
2022/06/27 07:01:47;;;;;;;9.02;8.02;;;27.20;99.90;;;;;;5014854;28;20073;-62
2022/06/27 07:04:12;;;;;;;11.88;8.65;;;27.30;99.90;;;;;;5014086;28;20033;-61
2022/06/27 07:06:39;;;;;;;14.35;9.38;;;27.40;99.90;;;;;;5014559;28;20067;-62
2022/06/27 07:09:05;;;;;;;12.77;8.80;;;27.60;99.90;;;;;;5013269;28;20029;-61
2022/06/27 07:11:32;;;;;;;9.75;6.80;;;27.70;99.90;;;;;;5014871;28;20113;-60
2022/06/27 07:13:58;;;;;;;10.00;7.95;;;27.80;99.90;;;;;;5014484;28;20022;-61
2022/06/27 07:16:25;;;;;;;8.38;7.13;;;27.90;99.20;;;;;;5014533;28;20440;-63
2022/06/27 07:18:54;;;;;;;7.65;6.65;;;28.00;99.10;;;;;;5014742;28;20061;-64
2022/06/27 07:21:20;;;;;;;5.93;5.43;;;28.20;98.80;;;;;;5012707;28;20401;-62
2022/06/27 07:23:47;;;;;;;6.18;5.60;;;28.30;99.60;;;;;;5014075;28;20076;-62
2022/06/27 07:26:16;;;;;;;5.00;4.60;;;28.50;99.80;;;;;;5010735;28;20424;-61
2022/06/27 07:28:41;;;;;;;6.65;6.05;;;28.60;99.10;;;;;;5008639;28;20038;-61
2022/06/27 07:31:12;;;;;;;5.68;5.20;;;28.70;98.50;;;;;;5009639;28;20028;-63
2022/06/27 07:33:44;;;;;;;5.30;4.90;;;28.70;98.20;;;;;;5009731;28;20034;-62
2022/06/27 07:36:17;;;;;;;4.82;4.43;;;28.80;98.70;;;;;;5010291;28;20018;-62
2022/06/27 07:38:45;;;;;;;5.28;4.88;;;29.10;97.90;;;;;;5012094;28;20090;-62
2022/06/27 07:41:13;;;;;;;4.50;4.20;;;29.10;97.80;;;;;;5014215;28;20033;-62
2022/06/27 07:43:44;;;;;;;5.18;4.25;;;29.20;98.00;;;;;;5013929;28;20025;-63
2022/06/27 07:46:10;;;;;;;5.65;4.80;;;29.50;97.90;;;;;;5013037;28;20037;-62
2022/06/27 07:48:40;;;;;;;6.43;5.55;;;29.70;98.60;;;;;;5013676;28;20091;-61
2022/06/27 07:51:05;;;;;;;4.78;4.38;;;30.80;96.50;;;;;;5014149;28;20428;-62
2022/06/27 07:53:32;;;;;;;4.38;3.92;;;32.90;94.80;;;;;;5013195;28;20029;-61
2022/06/27 07:56:00;;;;;;;4.10;3.80;;;35.00;91.60;;;;;;5013228;28;20087;-63
2022/06/27 07:58:38;;;;;;;4.50;4.10;;;36.60;84.70;;;;;;5013077;28;20056;-62
2022/06/27 08:01:10;;;;;;;4.32;3.92;;;37.40;78.10;;;;;;5013016;28;20460;-61
2022/06/27 08:03:39;;;;;;;4.20;3.80;;;38.40;72.70;;;;;;5013449;28;20022;-62
2022/06/27 08:06:14;;;;;;;3.70;3.40;;;39.00;68.10;;;;;;5013845;28;20066;-62
2022/06/27 08:08:43;;;;;;;4.05;3.75;;;39.70;65.70;;;;;;5013369;28;20029;-61
2022/06/27 08:11:17;;;;;;;3.60;3.30;;;40.10;63.50;;;;;;5013406;28;20034;-61
2022/06/27 08:13:45;;;;;;;3.17;2.83;;;40.70;59.80;;;;;;5011399;28;20076;-63
2022/06/27 08:16:14;;;;;;;3.35;3.05;;;41.10;57.70;;;;;;5004471;28;20026;-61
2022/06/27 08:18:41;;;;;;;3.70;3.40;;;41.30;58.20;;;;;;4992067;28;20033;-62
2022/06/27 08:21:08;;;;;;;3.67;3.20;;;41.70;58.30;;;;;;5002584;28;20495;-63
2022/06/27 08:23:37;;;;;;;3.75;3.45;;;41.50;55.90;;;;;;5011046;28;20480;-62
2022/06/27 08:26:06;;;;;;;3.67;3.38;;;41.70;57.30;;;;;;5011753;28;20037;-63
2022/06/27 08:28:33;;;;;;;3.67;3.38;;;41.70;56.70;;;;;;5007906;28;20405;-63
2022/06/27 08:31:01;;;;;;;4.22;3.80;;;41.80;55.80;;;;;;5004631;28;20057;-61
2022/06/27 08:33:31;;;;;;;3.95;3.08;;;41.50;54.60;;;;;;5011245;28;20025;-62
2022/06/27 08:35:58;;;;;;;3.90;3.30;;;41.70;52.60;;;;;;5009850;28;20033;-62
2022/06/27 08:38:24;;;;;;;4.22;3.58;;;41.80;53.00;;;;;;5011487;28;20108;-63
2022/06/27 08:40:56;;;;;;;3.70;3.40;;;41.80;53.00;;;;;;5011515;28;20068;-61
2022/06/27 08:43:23;;;;;;;3.00;2.80;;;41.60;53.30;;;;;;5012490;28;20026;-61
2022/06/27 08:45:51;;;;;;;2.72;2.53;;;41.70;49.40;;;;;;5009193;28;20033;-61
2022/06/27 08:48:17;;;;;;;3.30;3.00;;;41.60;49.00;;;;;;4998057;28;20393;-60
2022/06/27 08:50:45;;;;;;;3.25;2.53;;;41.40;47.70;;;;;;5010352;28;20030;-61
2022/06/27 08:53:15;;;;;;;2.75;2.53;;;41.30;48.50;;;;;;5010177;28;20061;-61
2022/06/27 08:55:46;;;;;;;2.70;2.42;;;41.70;47.90;;;;;;5010896;28;20385;-61
2022/06/27 08:58:13;;;;;;;3.33;2.53;;;41.40;46.60;;;;;;5011367;28;20054;-61
2022/06/27 09:00:42;;;;;;;2.88;2.67;;;41.40;48.70;;;;;;5010716;28;20065;-61
2022/06/27 09:03:08;;;;;;;2.40;2.20;;;41.50;48.50;;;;;;5010152;28;20080;-62
2022/06/27 09:05:34;;;;;;;2.20;2.00;;;41.40;47.20;;;;;;5010879;28;20097;-63
2022/06/27 09:08:02;;;;;;;1.95;1.65;;;41.70;45.40;;;;;;5010988;28;20033;-64
2022/06/27 09:10:35;;;;;;;2.15;1.95;;;41.90;46.70;;;;;;5010124;28;20473;-62
2022/06/27 09:13:15;;;;;;;2.83;2.25;;;42.10;46.70;;;;;;5010442;28;20034;-63
2022/06/27 09:16:00;;;;;;;2.80;2.05;;;41.80;44.30;;;;;;5011434;28;20022;-64
2022/06/27 09:18:37;;;;;;;4.05;1.63;;;41.50;44.20;;;;;;5012154;28;20022;-63
2022/06/27 09:21:05;;;;;;;1.80;1.70;;;41.40;43.70;;;;;;5010714;28;20025;-61
2022/06/27 09:23:49;;;;;;;1.90;1.70;;;41.00;43.70;;;;;;5011701;28;20101;-62
2022/06/27 09:26:22;;;;;;;1.70;1.60;;;41.20;43.10;;;;;;5005143;28;20026;-62
2022/06/27 09:28:56;;;;;;;1.77;1.60;;;41.50;43.40;;;;;;4989852;28;20085;-61
2022/06/27 09:31:25;;;;;;;2.20;1.63;;;41.90;44.00;;;;;;4990615;28;20113;-62
2022/06/27 09:34:08;;;;;;;2.28;1.50;;;42.20;42.90;;;;;;4990678;28;20472;-62
2022/06/27 09:36:42;;;;;;;1.30;1.20;;;42.40;42.20;;;;;;4991069;28;20061;-62
2022/06/27 09:39:24;;;;;;;2.03;1.50;;;42.20;41.90;;;;;;4991039;28;20113;-63
2022/06/27 09:42:17;;;;;;;2.03;1.48;;;41.90;44.10;;;;;;4991547;28;20026;-61
2022/06/27 09:44:45;;;;;;;2.33;1.33;;;41.80;43.40;;;;;;4991087;28;20034;-65
2022/06/27 09:47:20;;;;;;;1.73;1.42;;;41.80;43.80;;;;;;4992846;28;20097;-61
2022/06/27 09:49:49;;;;;;;2.75;1.83;;;41.70;43.30;;;;;;4996015;28;20026;-64
2022/06/27 09:52:20;;;;;;;1.63;1.45;;;41.80;44.40;;;;;;4996553;28;20034;-64
2022/06/27 09:54:48;;;;;;;1.70;1.15;;;41.50;43.20;;;;;;4996388;28;20050;-62
2022/06/27 09:57:16;;;;;;;2.00;1.60;;;41.60;43.70;;;;;;4996464;28;20840;-65
2022/06/27 09:59:44;;;;;;;1.60;1.50;;;41.60;41.80;;;;;;4996373;28;20388;-64
2022/06/27 10:02:11;;;;;;;1.30;1.20;;;41.60;43.80;;;;;;4996231;28;20472;-65
2022/06/27 10:04:37;;;;;;;2.53;1.60;;;41.60;42.60;;;;;;4996845;28;20114;-65
2022/06/27 10:07:06;;;;;;;1.90;1.38;;;41.30;42.20;;;;;;4995209;28;20050;-62
2022/06/27 10:09:35;;;;;;;2.05;1.90;;;41.00;41.50;;;;;;4996607;28;20027;-67
2022/06/27 10:12:23;;;;;;;1.42;1.33;;;41.20;43.40;;;;;;4995956;28;20066;-65
2022/06/27 10:15:19;;;;;;;1.40;1.30;;;41.50;41.30;;;;;;4995874;28;20030;-63
2022/06/27 10:17:44;;;;;;;1.70;1.27;;;41.70;41.60;;;;;;4994605;28;20041;-63
2022/06/27 10:20:26;;;;;;;1.75;1.42;;;41.90;41.10;;;;;;4996181;28;20377;-63
2022/06/27 10:23:26;;;;;;;2.20;1.38;;;41.40;41.90;;;;;;4994252;28;20552;-60
2022/06/27 10:25:53;;;;;;;1.73;1.30;;;41.10;41.90;;;;;;4994030;28;20080;-58
2022/06/27 10:28:21;;;;;;;1.38;1.20;;;40.70;41.10;;;;;;4994773;28;20019;-59
2022/06/27 10:30:49;;;;;;;2.17;1.45;;;40.90;40.30;;;;;;4995507;28;20036;-63
2022/06/27 10:33:20;;;;;;;1.77;1.40;;;41.10;41.00;;;;;;4993864;28;20050;-60
2022/06/27 10:36:16;;;;;;;1.98;1.35;;;41.10;41.30;;;;;;4995048;28;20425;-65
2022/06/27 10:38:48;;;;;;;2.53;1.63;;;40.70;39.60;;;;;;4995363;28;20112;-63
2022/06/27 10:41:19;;;;;;;1.42;1.33;;;40.30;40.70;;;;;;4995523;28;20039;-63
2022/06/27 10:43:49;;;;;;;;;;;39.90;40.80;;;;;;4995692;28;20670;-62
2022/06/27 10:46:17;;;;;;;1.58;1.48;;;40.30;42.20;;;;;;4995200;28;19905;-64
2022/06/27 10:48:47;;;;;;;1.30;1.20;;;40.70;40.60;;;;;;4995265;28;20018;-62
2022/06/27 10:51:18;;;;;;;1.20;1.10;;;41.00;41.50;;;;;;4993680;28;20385;-61
2022/06/27 10:54:04;;;;;;;2.58;1.52;;;41.30;41.80;;;;;;4996631;28;20014;-61
2022/06/27 10:56:30;;;;;;;1.88;1.20;;;41.20;39.00;;;;;;5001826;28;20034;-61
2022/06/27 10:59:00;;;;;;;1.90;1.15;;;41.00;40.70;;;;;;4997050;28;20191;-60
2022/06/27 11:01:26;;;;;;;1.75;1.30;;;41.20;40.30;;;;;;4992203;28;20088;-62
2022/06/27 11:03:52;;;;;;;1.58;1.25;;;41.50;39.60;;;;;;4993414;28;20026;-62
2022/06/27 11:06:18;;;;;;;1.90;1.80;;;41.60;41.40;;;;;;4992856;28;20077;-62
2022/06/27 11:08:46;;;;;;;2.75;1.60;;;41.60;38.30;;;;;;4993379;28;20034;-61
2022/06/27 11:11:30;;;;;;;1.50;1.40;;;41.50;39.20;;;;;;4993207;28;20022;-60
2022/06/27 11:13:57;;;;;;;1.45;1.35;;;41.70;38.40;;;;;;4993541;28;20032;-60
2022/06/27 11:16:26;;;;;;;1.33;1.23;;;42.00;40.00;;;;;;4993008;28;20097;-61
2022/06/27 11:18:52;;;;;;;1.27;1.17;;;41.90;38.70;;;;;;4993794;28;20019;-61
2022/06/27 11:21:23;;;;;;;1.60;1.40;;;42.00;38.30;;;;;;4993901;28;20093;-62
2022/06/27 11:23:57;;;;;;;1.38;1.27;;;42.10;38.10;;;;;;4994390;28;20549;-60
2022/06/27 11:26:26;;;;;;;1.65;1.50;;;42.20;39.70;;;;;;4993965;28;20069;-59
2022/06/27 11:34:20;;;;;;;1.90;1.70;;;41.10;38.30;;;;;;4994475;28;20032;-60
2022/06/27 11:36:46;;;;;;;2.08;1.50;;;40.90;39.60;;;;;;4994922;28;20018;-60
2022/06/27 11:39:14;;;;;;;1.80;1.48;;;41.00;38.20;;;;;;4994505;28;20022;-59
2022/06/27 11:41:40;;;;;;;1.92;1.55;;;41.30;38.40;;;;;;4994794;28;20057;-61
2022/06/27 11:44:10;;;;;;;1.70;1.38;;;41.60;38.60;;;;;;4994264;28;20077;-60
2022/06/27 11:46:45;;;;;;;1.63;1.48;;;41.70;37.80;;;;;;4994612;28;20034;-59
2022/06/27 11:49:13;;;;;;;1.83;1.30;;;41.40;39.60;;;;;;4994621;28;20022;-59
2022/06/27 11:51:41;;;;;;;2.28;1.70;;;41.40;40.00;;;;;;5009680;28;20030;-59
2022/06/27 11:54:14;;;;;;;1.40;1.30;;;41.30;39.10;;;;;;5010898;28;20026;-60
2022/06/27 11:56:47;;;;;;;1.42;1.33;;;41.40;38.30;;;;;;5014009;28;20036;-60
2022/06/27 11:59:15;;;;;;;1.48;1.38;;;41.60;37.60;;;;;;5013667;28;20046;-59
2022/06/27 12:01:53;;;;;;;1.88;1.73;;;41.60;39.60;;;;;;5014134;28;20400;-61
2022/06/27 12:04:22;;;;;;;1.65;1.55;;;41.70;40.80;;;;;;5013087;28;20495;-59
2022/06/27 12:06:56;;;;;;;1.92;1.77;;;41.90;39.70;;;;;;5012867;28;20022;-60
2022/06/27 12:09:24;;;;;;;1.80;1.35;;;42.10;38.50;;;;;;5013792;28;20068;-59
2022/06/27 12:12:07;;;;;;;1.40;1.30;;;42.10;38.50;;;;;;5013821;28;20452;-59
2022/06/27 12:14:44;;;;;;;3.55;1.50;;;42.10;37.70;;;;;;5012536;28;20032;-61
2022/06/27 12:17:10;;;;;;;1.35;1.23;;;41.70;37.20;;;;;;5012393;28;20033;-60
2022/06/27 12:19:36;;;;;;;1.63;1.52;;;41.40;38.60;;;;;;5012841;28;20092;-59
2022/06/27 12:22:02;;;;;;;1.65;1.55;;;41.40;37.50;;;;;;5013378;28;20123;-59
2022/06/27 12:24:27;;;;;;;1.50;1.40;;;41.10;38.90;;;;;;5012971;28;20101;-60
2022/06/27 12:26:53;;;;;;;1.15;1.05;;;41.10;38.40;;;;;;5013768;28;20053;-59
2022/06/27 12:29:19;;;;;;;2.38;1.55;;;41.50;39.40;;;;;;5013380;28;20385;-59
2022/06/27 12:31:45;;;;;;;1.63;1.50;;;41.50;40.30;;;;;;5013347;28;20095;-60
2022/06/27 12:34:11;;;;;;;2.15;1.90;;;41.60;38.80;;;;;;5013646;28;20535;-59
2022/06/27 12:36:37;;;;;;;1.73;1.63;;;41.60;38.60;;;;;;5013891;28;20025;-59
2022/06/27 12:39:04;;;;;;;1.73;1.63;;;41.40;39.30;;;;;;5012339;28;20033;-60
2022/06/27 12:41:30;;;;;;;1.67;1.48;;;41.20;38.90;;;;;;5012061;28;20041;-60
2022/06/27 12:43:57;;;;;;;1.90;1.67;;;41.40;39.00;;;;;;5011691;28;20017;-60
2022/06/27 12:46:23;;;;;;;1.50;1.40;;;41.40;39.70;;;;;;5012136;28;20026;-61
2022/06/27 12:48:49;;;;;;;1.92;1.83;;;41.20;39.40;;;;;;5012805;28;20362;-60
2022/06/27 12:51:15;;;;;;;1.73;1.55;;;41.20;39.20;;;;;;5012826;28;20088;-59
2022/06/27 12:53:41;;;;;;;2.80;1.58;;;41.30;37.90;;;;;;5012920;28;20097;-60
2022/06/27 12:56:07;;;;;;;1.92;1.83;;;40.90;38.80;;;;;;5013664;28;20508;-60
2022/06/27 12:58:33;;;;;;;2.15;1.50;;;40.70;40.70;;;;;;5012963;28;20125;-60